createdAt,value
2022-08-16T00:03:43.636Z,5.10
2022-08-16T00:08:45.875Z,5.00
2022-08-16T00:13:43.503Z,5.40
2022-08-16T00:18:44.453Z,5.20
2022-08-16T00:23:46.299Z,4.80
2022-08-16T00:28:43.334Z,5.30
2022-08-16T00:33:50.150Z,4.90
2022-08-16T00:38:44.244Z,5.30
2022-08-16T00:43:44.331Z,5.30
2022-08-16T00:48:45.605Z,5.30
2022-08-16T00:53:43.064Z,5.40
2022-08-16T00:58:43.018Z,5.70
2022-08-16T01:03:42.954Z,5.40
2022-08-16T01:08:42.922Z,5.20
2022-08-16T01:13:42.868Z,6.00
2022-08-16T01:18:42.835Z,5.50
2022-08-16T01:23:58.208Z,5.10
2022-08-16T01:28:45.585Z,5.10
2022-08-16T01:33:44.651Z,5.30
2022-08-16T01:38:53.272Z,5.20
2022-08-16T01:43:43.543Z,5.50
2022-08-16T01:48:42.459Z,5.70
2022-08-16T01:53:42.408Z,5.50
2022-08-16T01:58:47.999Z,15.30
2022-08-16T02:03:43.312Z,5.20
2022-08-16T02:08:42.259Z,5.00
2022-08-16T02:13:42.213Z,5.00
2022-08-16T02:18:44.153Z,5.40
2022-08-16T02:23:43.082Z,5.20
2022-08-16T02:28:45.194Z,5.10
2022-08-16T02:33:44.365Z,5.40
2022-08-16T02:38:43.919Z,5.40
2022-08-16T02:43:42.864Z,5.40
2022-08-16T02:48:49.225Z,5.40
2022-08-16T02:53:46.093Z,5.30
2022-08-16T02:58:44.870Z,5.40
2022-08-16T03:04:29.687Z,5.60
2022-08-16T03:08:52.114Z,5.70
2022-08-16T03:13:42.564Z,5.30
2022-08-16T03:18:41.515Z,5.20
2022-08-16T03:23:41.456Z,5.70
2022-08-16T03:28:41.384Z,5.10
2022-08-16T03:33:41.332Z,5.60
2022-08-16T03:38:41.294Z,5.00
2022-08-16T03:43:51.255Z,5.40
2022-08-16T03:48:45.564Z,5.60
2022-08-16T03:53:41.125Z,5.30
2022-08-16T03:58:41.084Z,5.60
2022-08-16T04:03:41.003Z,5.60
2022-08-16T04:08:40.951Z,6.50
2022-08-16T04:13:59.995Z,5.90
2022-08-16T04:18:41.838Z,5.60
2022-08-16T04:23:40.835Z,5.80
2022-08-16T04:28:53.502Z,5.90
2022-08-16T04:33:50.884Z,5.80
2022-08-16T04:38:41.639Z,5.50
2022-08-16T04:43:43.697Z,5.40
2022-08-16T04:48:40.516Z,5.50
2022-08-16T04:53:41.405Z,5.50
2022-08-16T04:58:45.973Z,5.60
2022-08-16T05:03:41.742Z,4.70
2022-08-16T05:08:40.293Z,5.30
2022-08-16T05:13:42.580Z,5.30
2022-08-16T05:18:40.197Z,4.70
2022-08-16T05:23:40.130Z,5.10
2022-08-16T05:28:40.096Z,4.40
2022-08-16T05:33:42.319Z,4.70
2022-08-16T05:38:40.107Z,4.60
2022-08-16T05:43:46.547Z,4.80
2022-08-16T05:48:40.868Z,4.70
2022-08-16T05:53:41.360Z,4.70
2022-08-16T05:58:39.765Z,4.10
2022-08-16T06:03:39.718Z,3.90
2022-08-16T06:08:42.224Z,1.80
2022-08-16T06:13:42.127Z,4.30
2022-08-16T06:18:41.534Z,3.80
2022-08-16T06:23:39.477Z,3.60
2022-08-16T06:28:39.475Z,4.00
2022-08-16T06:33:41.379Z,3.60
2022-08-16T06:38:39.316Z,4.80
2022-08-16T06:43:40.266Z,4.50
2022-08-16T06:48:42.851Z,3.90
2022-08-16T06:53:39.349Z,3.80
2022-08-16T06:58:39.121Z,4.10
2022-08-16T07:03:55.290Z,3.50
2022-08-16T07:08:40.004Z,4.20
2022-08-16T07:14:00.501Z,4.30
2022-08-16T07:18:39.965Z,4.30
2022-08-16T07:23:39.925Z,4.10
2022-08-16T07:28:38.923Z,4.00
2022-08-16T07:33:52.296Z,4.10
2022-08-16T07:38:39.684Z,3.90
2022-08-16T07:43:40.403Z,4.20
2022-08-16T07:48:38.693Z,4.30
2022-08-16T07:53:43.865Z,3.80
2022-08-16T07:58:39.498Z,4.00
2022-08-16T08:03:39.979Z,4.50
2022-08-16T08:08:49.819Z,3.80
2022-08-16T08:13:42.621Z,4.10
2022-08-16T08:18:38.301Z,3.60
2022-08-16T08:23:42.533Z,3.80
2022-08-16T08:28:38.321Z,3.80
2022-08-16T08:33:39.977Z,4.40
2022-08-16T08:38:44.082Z,4.20
2022-08-16T08:43:41.526Z,4.60
2022-08-16T08:48:38.121Z,4.40
2022-08-16T08:53:38.961Z,4.40
2022-08-16T08:58:37.881Z,4.30
2022-08-16T09:03:37.967Z,4.20
2022-08-16T09:08:37.996Z,4.40
2022-08-16T09:13:37.825Z,4.30
2022-08-16T09:18:38.768Z,4.00
2022-08-16T09:23:37.769Z,4.50
2022-08-16T09:29:13.795Z,4.80
2022-08-16T09:33:39.300Z,4.70
2022-08-16T09:38:37.487Z,4.40
2022-08-16T09:43:58.837Z,4.70
2022-08-16T09:48:44.667Z,4.90
2022-08-16T09:53:38.367Z,4.90
2022-08-16T09:58:41.600Z,5.40
2022-08-16T10:03:38.376Z,5.00
2022-08-16T10:08:59.728Z,4.70
2022-08-16T10:13:38.180Z,4.30
2022-08-16T10:19:00.292Z,5.30
2022-08-16T10:23:38.081Z,3.90
2022-08-16T10:28:40.314Z,4.40
2022-08-16T10:33:40.443Z,4.60
2022-08-16T10:38:37.119Z,4.50
2022-08-16T10:43:36.906Z,4.40
2022-08-16T10:48:36.837Z,4.60
2022-08-16T10:53:36.818Z,3.90
2022-08-16T10:58:36.764Z,5.30
2022-08-16T11:03:41.860Z,4.60
2022-08-16T11:08:41.931Z,3.50
2022-08-16T11:18:54.902Z,3.70
2022-08-16T11:23:37.569Z,3.50
2022-08-16T11:29:12.676Z,3.10
2022-08-16T11:33:53.243Z,3.50
2022-08-16T11:38:55.301Z,3.50
2022-08-16T11:43:37.384Z,3.60
2022-08-16T11:48:36.326Z,3.40
2022-08-16T11:53:36.285Z,3.20
2022-08-16T11:58:36.225Z,3.40
2022-08-16T12:03:36.226Z,3.10
2022-08-16T12:08:36.186Z,3.40
2022-08-16T12:13:36.148Z,3.90
2022-08-16T12:18:36.057Z,3.30
2022-08-16T12:23:36.025Z,3.50
2022-08-16T12:28:36.957Z,3.00
2022-08-16T12:33:44.494Z,3.30
2022-08-16T12:38:41.647Z,3.50
2022-08-16T12:43:36.994Z,3.50
2022-08-16T12:48:36.991Z,3.70
2022-08-16T12:53:35.981Z,3.00
2022-08-16T12:58:49.251Z,3.50
2022-08-16T13:03:40.070Z,2.70
2022-08-16T13:08:36.338Z,3.40
2022-08-16T13:13:35.692Z,3.50
2022-08-16T13:18:35.907Z,3.20
2022-08-16T13:23:35.880Z,3.30
2022-08-16T13:28:35.608Z,3.60
2022-08-16T13:33:37.838Z,3.40
2022-08-16T13:38:37.628Z,4.50
2022-08-16T13:43:35.312Z,3.40
2022-08-16T13:48:42.954Z,3.90
2022-08-16T13:53:36.294Z,3.50
2022-08-16T13:58:54.082Z,3.40
2022-08-16T14:03:37.042Z,3.50
2022-08-16T14:08:35.075Z,3.40
2022-08-16T14:13:35.084Z,3.40
2022-08-16T14:18:35.391Z,4.20
2022-08-16T14:23:34.968Z,3.40
2022-08-16T14:28:34.971Z,3.90
2022-08-16T14:33:34.890Z,3.70
2022-08-16T14:38:37.410Z,3.60
2022-08-16T14:43:34.848Z,3.70
2022-08-16T14:48:35.938Z,3.70
2022-08-16T14:53:35.752Z,4.00
2022-08-16T14:58:38.072Z,3.40
2022-08-16T15:03:37.338Z,3.90
2022-08-16T15:08:37.147Z,3.90
2022-08-16T15:13:35.715Z,4.50
2022-08-16T15:18:34.534Z,3.90
2022-08-16T15:23:34.476Z,4.10
2022-08-16T15:28:34.379Z,3.70
2022-08-16T15:33:34.490Z,3.40
2022-08-16T15:39:05.582Z,3.90
2022-08-16T15:43:39.702Z,4.30
2022-08-16T15:48:35.239Z,4.10
2022-08-16T15:53:41.797Z,4.20
2022-08-16T15:58:38.615Z,3.60
2022-08-16T16:03:34.577Z,4.00
2022-08-16T16:08:34.020Z,4.30
2022-08-16T16:13:33.986Z,5.00
2022-08-16T16:18:33.874Z,3.70
2022-08-16T16:23:33.814Z,3.70
2022-08-16T16:29:06.290Z,4.00
2022-08-16T16:33:35.846Z,4.30
2022-08-16T16:38:33.665Z,4.20
2022-08-16T16:43:33.562Z,4.40
2022-08-16T16:48:34.756Z,4.00
2022-08-16T16:53:37.669Z,4.30
2022-08-16T16:58:36.663Z,4.40
2022-08-16T17:03:33.513Z,4.20
2022-08-16T17:08:33.276Z,4.00
2022-08-16T17:13:33.327Z,4.00
2022-08-16T17:19:16.851Z,4.60
2022-08-16T17:23:59.316Z,4.10
2022-08-16T17:28:57.691Z,4.70
2022-08-16T17:33:37.249Z,4.90
2022-08-16T17:38:43.713Z,4.10
2022-08-16T17:43:33.909Z,4.20
2022-08-16T17:48:32.951Z,4.40
2022-08-16T17:53:32.809Z,3.80
2022-08-16T17:58:33.115Z,5.00
2022-08-16T18:04:02.578Z,5.40
2022-08-16T18:08:33.637Z,4.70
2022-08-16T18:13:32.614Z,4.10
2022-08-16T18:18:32.591Z,4.20
2022-08-16T18:23:32.600Z,4.90
2022-08-16T18:28:32.561Z,5.50
2022-08-16T18:33:32.503Z,4.50
2022-08-16T18:38:35.081Z,4.50
2022-08-16T18:43:55.516Z,4.60
2022-08-16T18:48:33.222Z,4.80
2022-08-16T18:53:32.155Z,4.50
2022-08-16T18:58:32.114Z,4.30
2022-08-16T19:03:32.057Z,4.50
2022-08-16T19:08:32.177Z,5.60
2022-08-16T19:13:32.093Z,4.90
2022-08-16T19:18:36.730Z,5.10
2022-08-16T19:23:33.007Z,5.30
2022-08-16T19:28:50.466Z,5.90
2022-08-16T19:33:32.800Z,5.10
2022-08-16T19:38:31.677Z,5.80
2022-08-16T19:43:31.635Z,5.30
2022-08-16T19:48:31.568Z,5.40
2022-08-16T19:53:31.524Z,5.80
2022-08-16T19:58:32.582Z,4.90
2022-08-16T20:03:40.388Z,6.00
2022-08-16T20:08:38.319Z,5.50
2022-08-16T20:13:31.456Z,5.70
2022-08-16T20:18:31.389Z,4.80
2022-08-16T20:23:31.200Z,5.40
2022-08-16T20:28:49.987Z,5.70
2022-08-16T20:33:32.090Z,6.00
2022-08-16T20:38:31.052Z,6.00
2022-08-16T20:43:30.979Z,5.50
2022-08-16T20:48:30.934Z,5.40
2022-08-16T20:53:30.899Z,6.10
2022-08-16T20:58:30.810Z,6.40
2022-08-16T21:03:31.820Z,5.90
2022-08-16T21:08:52.287Z,6.00
2022-08-16T21:13:31.693Z,6.30
2022-08-16T21:18:30.701Z,6.40
2022-08-16T21:23:30.629Z,6.80
2022-08-16T21:28:36.828Z,6.30
2022-08-16T21:33:31.456Z,6.90
2022-08-16T21:38:31.141Z,6.90
2022-08-16T21:43:30.361Z,6.20
2022-08-16T21:48:34.870Z,6.90
2022-08-16T21:53:31.213Z,6.60
2022-08-16T21:58:30.162Z,7.30
2022-08-16T22:03:30.208Z,7.20
2022-08-16T22:08:30.138Z,7.40
2022-08-16T22:13:30.054Z,7.80
2022-08-16T22:18:29.961Z,6.60
2022-08-16T22:23:29.909Z,6.60
2022-08-16T22:28:29.857Z,6.60
2022-08-16T22:33:29.776Z,6.50
2022-08-16T22:38:53.701Z,7.70
2022-08-16T22:43:30.707Z,7.20
2022-08-16T22:48:29.642Z,7.40
2022-08-16T22:53:29.597Z,7.10
2022-08-16T22:58:36.749Z,7.30
2022-08-16T23:03:30.486Z,7.00
2022-08-16T23:08:38.168Z,7.40
2022-08-16T23:13:30.349Z,7.00
2022-08-16T23:18:29.299Z,7.10
2022-08-16T23:23:29.275Z,6.90
2022-08-16T23:28:29.300Z,8.40
2022-08-16T23:33:29.145Z,7.70
2022-08-16T23:38:38.352Z,7.20
2022-08-16T23:43:30.054Z,7.60
2022-08-16T23:48:29.989Z,7.40
2022-08-16T23:53:28.925Z,7.40
2022-08-16T23:58:28.878Z,8.30
